sensor_id;sensor_type;location;lat;lon;timestamp;pressure;altitude;pressure_sealevel;temperature;humidity
54122;BME280;40029;58.708;50.190;2023-05-11T00:01:53;100634.97;;;10.58;41.64
54122;BME280;40029;58.708;50.190;2023-05-11T00:04:25;100624.72;;;10.48;42.29
54122;BME280;40029;58.708;50.190;2023-05-11T00:06:56;100614.47;;;10.42;42.20
54122;BME280;40029;58.708;50.190;2023-05-11T00:09:27;100673.72;;;10.71;42.98
54122;BME280;40029;58.708;50.190;2023-05-11T00:11:58;100660.78;;;10.67;43.42
54122;BME280;40029;58.708;50.190;2023-05-11T00:14:48;100676.22;;;10.74;42.90
54122;BME280;40029;58.708;50.190;2023-05-11T00:17:19;100651.56;;;10.52;42.66
54122;BME280;40029;58.708;50.190;2023-05-11T00:20:10;100666.06;;;10.64;43.57
54122;BME280;40029;58.708;50.190;2023-05-11T00:22:41;100681.75;;;10.62;43.21
54122;BME280;40029;58.708;50.190;2023-05-11T00:25:12;100657.84;;;10.45;43.66
54122;BME280;40029;58.708;50.190;2023-05-11T00:27:43;100668.91;;;10.55;43.49
54122;BME280;40029;58.708;50.190;2023-05-11T00:30:15;100669.88;;;10.50;44.57
54122;BME280;40029;58.708;50.190;2023-05-11T00:32:47;100651.16;;;10.33;44.85
54122;BME280;40029;58.708;50.190;2023-05-11T00:35:19;100673.66;;;10.37;44.89
54122;BME280;40029;58.708;50.190;2023-05-11T00:37:50;100664.09;;;10.36;45.26
54122;BME280;40029;58.708;50.190;2023-05-11T00:40:40;100616.97;;;10.08;45.46
54122;BME280;40029;58.708;50.190;2023-05-11T00:43:11;100667.59;;;10.37;45.39
54122;BME280;40029;58.708;50.190;2023-05-11T00:45:42;100649.59;;;10.23;45.64
54122;BME280;40029;58.708;50.190;2023-05-11T00:48:18;100694.31;;;10.45;45.36
54122;BME280;40029;58.708;50.190;2023-05-11T00:50:49;100620.47;;;10.07;45.71
54122;BME280;40029;58.708;50.190;2023-05-11T00:53:21;100632.44;;;10.14;45.21
54122;BME280;40029;58.708;50.190;2023-05-11T00:55:52;100631.56;;;10.15;45.73
54122;BME280;40029;58.708;50.190;2023-05-11T00:58:24;100687.34;;;10.45;45.66
54122;BME280;40029;58.708;50.190;2023-05-11T01:01:13;100694.97;;;10.53;45.24
54122;BME280;40029;58.708;50.190;2023-05-11T01:03:47;100671.06;;;10.36;46.05
54122;BME280;40029;58.708;50.190;2023-05-11T01:06:28;100649.53;;;10.27;45.63
54122;BME280;40029;58.708;50.190;2023-05-11T01:09:20;100705.38;;;10.55;45.89
54122;BME280;40029;58.708;50.190;2023-05-11T01:12:39;100709.63;;;10.59;45.25
54122;BME280;40029;58.708;50.190;2023-05-11T01:15:17;100670.25;;;10.32;46.38
54122;BME280;40029;58.708;50.190;2023-05-11T01:18:18;100708.78;;;10.57;46.64
54122;BME280;40029;58.708;50.190;2023-05-11T01:20:58;100698.59;;;10.47;45.92
54122;BME280;40029;58.708;50.190;2023-05-11T01:26:53;100683.91;;;10.43;46.39
54122;BME280;40029;58.708;50.190;2023-05-11T01:32:31;100715.94;;;10.48;46.19
54122;BME280;40029;58.708;50.190;2023-05-11T01:35:07;100672.25;;;10.21;46.53
54122;BME280;40029;58.708;50.190;2023-05-11T01:37:40;100695.63;;;10.22;46.41
54122;BME280;40029;58.708;50.190;2023-05-11T01:40:17;100725.69;;;10.39;46.78
54122;BME280;40029;58.708;50.190;2023-05-11T01:43:03;100732.59;;;10.41;47.63
54122;BME280;40029;58.708;50.190;2023-05-11T01:45:36;100732.63;;;10.40;47.69
54122;BME280;40029;58.708;50.190;2023-05-11T01:48:16;100735.91;;;10.48;46.95
54122;BME280;40029;58.708;50.190;2023-05-11T01:51:07;100706.66;;;10.35;47.00
54122;BME280;40029;58.708;50.190;2023-05-11T01:53:40;100743.63;;;10.52;47.69
54122;BME280;40029;58.708;50.190;2023-05-11T01:56:13;100733.97;;;10.58;46.74
54122;BME280;40029;58.708;50.190;2023-05-11T01:59:04;100686.88;;;10.28;46.94
54122;BME280;40029;58.708;50.190;2023-05-11T02:01:35;100682.38;;;10.35;47.28
54122;BME280;40029;58.708;50.190;2023-05-11T02:04:08;100711.50;;;10.52;47.16
54122;BME280;40029;58.708;50.190;2023-05-11T02:06:42;100714.00;;;10.58;46.58
54122;BME280;40029;58.708;50.190;2023-05-11T02:09:33;100732.59;;;10.79;47.26
54122;BME280;40029;58.708;50.190;2023-05-11T02:12:07;100688.03;;;10.54;46.99
54122;BME280;40029;58.708;50.190;2023-05-11T02:14:41;100739.78;;;11.06;47.21
54122;BME280;40029;58.708;50.190;2023-05-11T02:17:14;100692.94;;;10.67;46.38
54122;BME280;40029;58.708;50.190;2023-05-11T02:20:07;100742.53;;;11.00;46.94
54122;BME280;40029;58.708;50.190;2023-05-11T02:22:41;100703.75;;;10.86;46.48
54122;BME280;40029;58.708;50.190;2023-05-11T02:25:31;100694.28;;;10.82;46.87
54122;BME280;40029;58.708;50.190;2023-05-11T02:28:03;100759.34;;;11.24;46.72
54122;BME280;40029;58.708;50.190;2023-05-11T02:30:45;100757.50;;;11.27;47.60
54122;BME280;40029;58.708;50.190;2023-05-11T02:33:20;100754.00;;;11.29;47.36
54122;BME280;40029;58.708;50.190;2023-05-11T02:35:55;100671.78;;;10.80;46.59
54122;BME280;40029;58.708;50.190;2023-05-11T02:38:32;100765.72;;;11.46;46.28
54122;BME280;40029;58.708;50.190;2023-05-11T02:41:11;100765.81;;;11.43;46.92
54122;BME280;40029;58.708;50.190;2023-05-11T02:43:46;100773.47;;;11.49;46.83
54122;BME280;40029;58.708;50.190;2023-05-11T02:46:22;100713.22;;;11.26;46.17
54122;BME280;40029;58.708;50.190;2023-05-11T02:48:55;100776.19;;;11.45;46.81
54122;BME280;40029;58.708;50.190;2023-05-11T02:51:35;100787.13;;;11.61;47.06
54122;BME280;40029;58.708;50.190;2023-05-11T02:54:08;100786.94;;;11.68;46.11
54122;BME280;40029;58.708;50.190;2023-05-11T02:56:44;100745.75;;;11.45;46.20
54122;BME280;40029;58.708;50.190;2023-05-11T02:59:16;100779.81;;;11.73;45.92
54122;BME280;40029;58.708;50.190;2023-05-11T03:01:47;100791.78;;;11.82;46.58
54122;BME280;40029;58.708;50.190;2023-05-11T03:04:19;100789.06;;;11.87;46.10
54122;BME280;40029;58.708;50.190;2023-05-11T03:06:51;100748.63;;;11.67;45.73
54122;BME280;40029;58.708;50.190;2023-05-11T03:09:22;100730.03;;;11.80;45.97
54122;BME280;40029;58.708;50.190;2023-05-11T03:12:13;100775.97;;;12.19;44.79
54122;BME280;40029;58.708;50.190;2023-05-11T03:14:45;100738.38;;;11.94;45.34
54122;BME280;40029;58.708;50.190;2023-05-11T03:17:18;100786.03;;;12.33;45.48
54122;BME280;40029;58.708;50.190;2023-05-11T03:19:52;100730.06;;;12.11;44.75
54122;BME280;40029;58.708;50.190;2023-05-11T03:22:43;100789.22;;;12.43;44.96
54122;BME280;40029;58.708;50.190;2023-05-11T03:25:16;100786.59;;;12.43;45.20
54122;BME280;40029;58.708;50.190;2023-05-11T03:27:49;100794.78;;;12.62;44.76
54122;BME280;40029;58.708;50.190;2023-05-11T03:30:21;100794.44;;;12.72;44.39
54122;BME280;40029;58.708;50.190;2023-05-11T03:32:56;100795.91;;;12.81;43.97
54122;BME280;40029;58.708;50.190;2023-05-11T03:35:30;100781.94;;;12.82;44.10
54122;BME280;40029;58.708;50.190;2023-05-11T03:38:04;100799.84;;;12.94;44.13
54122;BME280;40029;58.708;50.190;2023-05-11T03:40:36;100748.44;;;12.67;43.90
54122;BME280;40029;58.708;50.190;2023-05-11T03:43:10;100794.38;;;13.02;43.84
54122;BME280;40029;58.708;50.190;2023-05-11T03:45:43;100797.56;;;13.40;42.33
54122;BME280;40029;58.708;50.190;2023-05-11T03:48:16;100809.25;;;13.30;42.15
54122;BME280;40029;58.708;50.190;2023-05-11T03:50:48;100746.13;;;12.84;42.68
54122;BME280;40029;58.708;50.190;2023-05-11T03:53:20;100770.31;;;13.19;41.74
54122;BME280;40029;58.708;50.190;2023-05-11T03:55:52;100751.00;;;13.23;40.97
54122;BME280;40029;58.708;50.190;2023-05-11T03:58:24;100813.31;;;13.65;40.65
54122;BME280;40029;58.708;50.190;2023-05-11T04:01:14;100800.81;;;13.73;40.13
54122;BME280;40029;58.708;50.190;2023-05-11T04:03:49;100751.03;;;13.48;39.85
54122;BME280;40029;58.708;50.190;2023-05-11T04:06:21;100756.72;;;13.61;39.24
54122;BME280;40029;58.708;50.190;2023-05-11T04:08:59;100767.38;;;13.80;39.09
54122;BME280;40029;58.708;50.190;2023-05-11T04:11:35;100726.25;;;13.58;39.22
54122;BME280;40029;58.708;50.190;2023-05-11T04:14:06;100806.03;;;14.23;38.33
54122;BME280;40029;58.708;50.190;2023-05-11T04:16:37;100788.47;;;14.25;38.22
54122;BME280;40029;58.708;50.190;2023-05-11T04:19:08;100773.88;;;14.18;37.90
54122;BME280;40029;58.708;50.190;2023-05-11T04:21:40;100797.47;;;14.41;37.64
54122;BME280;40029;58.708;50.190;2023-05-11T04:24:11;100799.00;;;14.47;37.31
54122;BME280;40029;58.708;50.190;2023-05-11T04:26:44;100809.72;;;14.64;36.99
54122;BME280;40029;58.708;50.190;2023-05-11T04:29:15;100778.63;;;14.55;36.70
54122;BME280;40029;58.708;50.190;2023-05-11T04:31:46;100754.13;;;14.31;36.47
54122;BME280;40029;58.708;50.190;2023-05-11T04:34:17;100670.03;;;13.92;35.71
54122;BME280;40029;58.708;50.190;2023-05-11T04:36:49;100743.94;;;14.48;35.32
54122;BME280;40029;58.708;50.190;2023-05-11T04:39:22;100739.91;;;14.62;34.48
54122;BME280;40029;58.708;50.190;2023-05-11T04:41:53;100792.94;;;14.92;34.21
54122;BME280;40029;58.708;50.190;2023-05-11T04:44:44;100730.44;;;14.80;33.87
54122;BME280;40029;58.708;50.190;2023-05-11T04:47:16;100790.78;;;15.23;33.49
54122;BME280;40029;58.708;50.190;2023-05-11T04:49:47;100767.78;;;15.08;32.29
54122;BME280;40029;58.708;50.190;2023-05-11T04:52:18;100791.44;;;15.29;31.21
54122;BME280;40029;58.708;50.190;2023-05-11T04:54:52;100787.91;;;15.30;30.62
54122;BME280;40029;58.708;50.190;2023-05-11T04:57:42;100803.28;;;15.39;30.22
54122;BME280;40029;58.708;50.190;2023-05-11T05:00:13;100755.59;;;15.28;29.68
54122;BME280;40029;58.708;50.190;2023-05-11T05:02:45;100742.56;;;15.26;29.63
54122;BME280;40029;58.708;50.190;2023-05-11T05:05:16;100744.44;;;15.22;29.62
54122;BME280;40029;58.708;50.190;2023-05-11T05:07:47;100777.16;;;15.56;29.15
54122;BME280;40029;58.708;50.190;2023-05-11T05:10:37;100736.19;;;15.32;29.18
54122;BME280;40029;58.708;50.190;2023-05-11T05:13:08;100778.09;;;15.55;28.84
54122;BME280;40029;58.708;50.190;2023-05-11T05:15:39;100773.59;;;15.37;28.01
54122;BME280;40029;58.708;50.190;2023-05-11T05:18:11;100703.47;;;14.98;27.64
54122;BME280;40029;58.708;50.190;2023-05-11T05:20:42;100743.78;;;15.17;27.12
54122;BME280;40029;58.708;50.190;2023-05-11T05:23:13;100769.06;;;15.40;27.23
54122;BME280;40029;58.708;50.190;2023-05-11T05:25:45;100784.19;;;15.56;27.03
54122;BME280;40029;58.708;50.190;2023-05-11T05:28:34;100786.50;;;15.84;26.39
54122;BME280;40029;58.708;50.190;2023-05-11T05:31:06;100784.56;;;15.68;26.85
54122;BME280;40029;58.708;50.190;2023-05-11T05:33:37;100734.69;;;15.46;26.80
54122;BME280;40029;58.708;50.190;2023-05-11T05:36:09;100780.06;;;15.70;26.71
54122;BME280;40029;58.708;50.190;2023-05-11T05:38:41;100727.38;;;15.53;26.71
54122;BME280;40029;58.708;50.190;2023-05-11T05:41:12;100780.88;;;15.93;26.31
54122;BME280;40029;58.708;50.190;2023-05-11T05:43:46;100785.19;;;15.94;25.76
54122;BME280;40029;58.708;50.190;2023-05-11T05:46:18;100770.16;;;16.16;25.56
54122;BME280;40029;58.708;50.190;2023-05-11T05:48:50;100780.91;;;16.31;25.68
54122;BME280;40029;58.708;50.190;2023-05-11T05:51:22;100734.84;;;16.22;24.95
54122;BME280;40029;58.708;50.190;2023-05-11T05:53:54;100768.22;;;16.40;24.68
54122;BME280;40029;58.708;50.190;2023-05-11T05:56:25;100775.66;;;16.49;24.08
54122;BME280;40029;58.708;50.190;2023-05-11T05:58:57;100733.72;;;16.28;24.18
54122;BME280;40029;58.708;50.190;2023-05-11T06:01:28;100727.69;;;16.44;23.83
54122;BME280;40029;58.708;50.190;2023-05-11T06:03:59;100772.25;;;16.66;24.03
54122;BME280;40029;58.708;50.190;2023-05-11T06:06:31;100746.56;;;16.71;23.57
54122;BME280;40029;58.708;50.190;2023-05-11T06:09:02;100764.47;;;17.01;23.66
54122;BME280;40029;58.708;50.190;2023-05-11T06:11:33;100741.38;;;16.89;23.15
54122;BME280;40029;58.708;50.190;2023-05-11T06:14:04;100729.41;;;17.01;23.20
54122;BME280;40029;58.708;50.190;2023-05-11T06:16:36;100788.66;;;17.27;22.86
54122;BME280;40029;58.708;50.190;2023-05-11T06:19:07;100669.28;;;16.55;22.51
54122;BME280;40029;58.708;50.190;2023-05-11T06:21:38;100751.47;;;17.33;22.13
54122;BME280;40029;58.708;50.190;2023-05-11T06:24:11;100755.13;;;17.47;21.98
54122;BME280;40029;58.708;50.190;2023-05-11T06:27:01;100747.00;;;17.35;21.85
54122;BME280;40029;58.708;50.190;2023-05-11T06:29:35;100789.13;;;17.69;20.71
54122;BME280;40029;58.708;50.190;2023-05-11T06:32:08;100748.22;;;17.28;20.99
54122;BME280;40029;58.708;50.190;2023-05-11T06:34:40;100779.91;;;17.26;21.36
54122;BME280;40029;58.708;50.190;2023-05-11T06:37:13;100757.06;;;16.90;21.62
54122;BME280;40029;58.708;50.190;2023-05-11T06:40:08;100754.34;;;16.74;22.72
54122;BME280;40029;58.708;50.190;2023-05-11T06:42:41;100786.44;;;16.83;22.80
54122;BME280;40029;58.708;50.190;2023-05-11T06:45:14;100787.72;;;16.74;23.24
54122;BME280;40029;58.708;50.190;2023-05-11T06:47:46;100797.41;;;16.72;22.58
54122;BME280;40029;58.708;50.190;2023-05-11T06:50:18;100756.88;;;16.38;22.52
54122;BME280;40029;58.708;50.190;2023-05-11T06:52:49;100757.13;;;16.53;22.37
54122;BME280;40029;58.708;50.190;2023-05-11T06:55:20;100747.28;;;16.56;22.27
54122;BME280;40029;58.708;50.190;2023-05-11T06:57:51;100773.50;;;16.78;22.14
54122;BME280;40029;58.708;50.190;2023-05-11T07:00:23;100748.16;;;16.57;21.72
54122;BME280;40029;58.708;50.190;2023-05-11T07:02:54;100781.34;;;16.97;21.44
54122;BME280;40029;58.708;50.190;2023-05-11T07:05:43;100786.25;;;17.05;20.54
54122;BME280;40029;58.708;50.190;2023-05-11T07:08:15;100760.53;;;17.10;20.84
54122;BME280;40029;58.708;50.190;2023-05-11T07:10:46;100783.06;;;17.15;21.15
54122;BME280;40029;58.708;50.190;2023-05-11T07:13:17;100788.19;;;17.18;21.07
54122;BME280;40029;58.708;50.190;2023-05-11T07:15:48;100771.16;;;17.26;20.68
54122;BME280;40029;58.708;50.190;2023-05-11T07:18:38;100777.59;;;17.37;20.23
54122;BME280;40029;58.708;50.190;2023-05-11T07:21:09;100770.47;;;17.39;20.81
54122;BME280;40029;58.708;50.190;2023-05-11T07:23:40;100725.59;;;17.23;20.39
54122;BME280;40029;58.708;50.190;2023-05-11T07:26:12;100772.94;;;17.60;20.24
54122;BME280;40029;58.708;50.190;2023-05-11T07:28:43;100772.34;;;17.55;20.50
54122;BME280;40029;58.708;50.190;2023-05-11T07:31:15;100772.09;;;17.59;20.00
54122;BME280;40029;58.708;50.190;2023-05-11T07:33:46;100786.50;;;17.87;20.36
54122;BME280;40029;58.708;50.190;2023-05-11T07:36:36;100787.06;;;18.27;19.24
54122;BME280;40029;58.708;50.190;2023-05-11T07:39:07;100789.25;;;18.34;19.42
54122;BME280;40029;58.708;50.190;2023-05-11T07:41:38;100737.72;;;17.95;19.41
54122;BME280;40029;58.708;50.190;2023-05-11T07:44:09;100768.06;;;18.20;18.57
54122;BME280;40029;58.708;50.190;2023-05-11T07:46:41;100744.69;;;17.96;19.27
54122;BME280;40029;58.708;50.190;2023-05-11T07:49:13;100769.31;;;17.97;18.90
54122;BME280;40029;58.708;50.190;2023-05-11T07:51:44;100784.59;;;18.23;18.25
54122;BME280;40029;58.708;50.190;2023-05-11T07:54:15;100736.88;;;17.95;18.29
54122;BME280;40029;58.708;50.190;2023-05-11T07:56:46;100778.97;;;18.30;18.47
54122;BME280;40029;58.708;50.190;2023-05-11T07:59:36;100778.13;;;18.29;17.88
54122;BME280;40029;58.708;50.190;2023-05-11T08:02:07;100762.88;;;18.18;17.86
54122;BME280;40029;58.708;50.190;2023-05-11T08:04:39;100757.41;;;18.21;18.57
54122;BME280;40029;58.708;50.190;2023-05-11T08:07:11;100772.34;;;18.38;18.01
54122;BME280;40029;58.708;50.190;2023-05-11T08:09:42;100781.72;;;18.44;17.86
54122;BME280;40029;58.708;50.190;2023-05-11T08:12:14;100778.31;;;18.42;17.80
54122;BME280;40029;58.708;50.190;2023-05-11T08:14:45;100778.06;;;18.62;17.45
54122;BME280;40029;58.708;50.190;2023-05-11T08:17:16;100738.03;;;18.22;17.78
54122;BME280;40029;58.708;50.190;2023-05-11T08:19:47;100778.41;;;18.40;17.60
54122;BME280;40029;58.708;50.190;2023-05-11T08:22:37;100777.09;;;18.47;16.83
54122;BME280;40029;58.708;50.190;2023-05-11T08:25:08;100727.50;;;18.22;16.79
54122;BME280;40029;58.708;50.190;2023-05-11T08:27:39;100775.75;;;18.40;16.25
54122;BME280;40029;58.708;50.190;2023-05-11T08:30:11;100725.59;;;18.24;16.30
54122;BME280;40029;58.708;50.190;2023-05-11T08:32:43;100753.06;;;18.69;16.26
54122;BME280;40029;58.708;50.190;2023-05-11T08:35:14;100760.13;;;18.85;15.91
54122;BME280;40029;58.708;50.190;2023-05-11T08:38:04;100726.41;;;18.74;15.83
54122;BME280;40029;58.708;50.190;2023-05-11T08:40:36;100769.16;;;18.81;15.80
54122;BME280;40029;58.708;50.190;2023-05-11T08:43:07;100721.69;;;18.63;15.72
54122;BME280;40029;58.708;50.190;2023-05-11T08:45:41;100747.00;;;18.83;15.62
54122;BME280;40029;58.708;50.190;2023-05-11T08:48:32;100742.06;;;18.77;15.06
54122;BME280;40029;58.708;50.190;2023-05-11T08:51:04;100743.94;;;18.91;15.56
54122;BME280;40029;58.708;50.190;2023-05-11T08:53:35;100736.50;;;18.97;15.17
54122;BME280;40029;58.708;50.190;2023-05-11T08:56:07;100698.47;;;18.54;15.80
54122;BME280;40029;58.708;50.190;2023-05-11T08:58:59;100700.41;;;18.66;14.97
54122;BME280;40029;58.708;50.190;2023-05-11T09:01:34;100734.94;;;19.09;15.33
54122;BME280;40029;58.708;50.190;2023-05-11T09:04:06;100739.75;;;19.33;15.00
54122;BME280;40029;58.708;50.190;2023-05-11T09:06:39;100693.94;;;19.18;15.36
54122;BME280;40029;58.708;50.190;2023-05-11T09:09:10;100708.16;;;19.15;15.02
54122;BME280;40029;58.708;50.190;2023-05-11T09:11:43;100741.72;;;19.29;14.92
54122;BME280;40029;58.708;50.190;2023-05-11T09:14:14;100717.72;;;19.32;14.45
54122;BME280;40029;58.708;50.190;2023-05-11T09:16:45;100697.06;;;19.25;14.32
54122;BME280;40029;58.708;50.190;2023-05-11T09:19:16;100688.34;;;19.08;14.66
54122;BME280;40029;58.708;50.190;2023-05-11T09:21:48;100733.53;;;19.34;14.43
54122;BME280;40029;58.708;50.190;2023-05-11T09:24:41;100720.22;;;19.49;13.60
54122;BME280;40029;58.708;50.190;2023-05-11T09:27:13;100725.72;;;19.46;13.96
54122;BME280;40029;58.708;50.190;2023-05-11T09:29:44;100686.22;;;19.29;13.56
54122;BME280;40029;58.708;50.190;2023-05-11T09:32:15;100712.78;;;19.42;13.66
54122;BME280;40029;58.708;50.190;2023-05-11T09:34:47;100691.63;;;19.56;13.77
54122;BME280;40029;58.708;50.190;2023-05-11T09:37:18;100715.97;;;19.63;13.64
54122;BME280;40029;58.708;50.190;2023-05-11T09:39:53;100709.13;;;19.59;13.03
54122;BME280;40029;58.708;50.190;2023-05-11T09:42:25;100715.50;;;19.85;13.05
54122;BME280;40029;58.708;50.190;2023-05-11T09:44:56;100634.97;;;19.17;12.73
54122;BME280;40029;58.708;50.190;2023-05-11T09:47:38;100656.50;;;19.40;12.64
54122;BME280;40029;58.708;50.190;2023-05-11T09:50:16;100641.50;;;19.40;12.74
54122;BME280;40029;58.708;50.190;2023-05-11T09:52:50;100699.50;;;19.86;12.68
54122;BME280;40029;58.708;50.190;2023-05-11T09:55:22;100683.94;;;19.67;12.59
54122;BME280;40029;58.708;50.190;2023-05-11T09:57:55;100696.22;;;19.97;12.29
54122;BME280;40029;58.708;50.190;2023-05-11T10:00:27;100665.31;;;19.83;12.41
54122;BME280;40029;58.708;50.190;2023-05-11T10:03:03;100714.91;;;20.08;12.35
54122;BME280;40029;58.708;50.190;2023-05-11T10:05:35;100661.28;;;19.78;12.51
54122;BME280;40029;58.708;50.190;2023-05-11T10:08:06;100675.06;;;19.83;12.47
54122;BME280;40029;58.708;50.190;2023-05-11T10:10:38;100713.88;;;20.11;12.35
54122;BME280;40029;58.708;50.190;2023-05-11T10:13:09;100703.66;;;20.05;12.06
54122;BME280;40029;58.708;50.190;2023-05-11T10:15:42;100710.63;;;20.20;12.08
54122;BME280;40029;58.708;50.190;2023-05-11T10:18:14;100694.50;;;19.96;12.48
54122;BME280;40029;58.708;50.190;2023-05-11T10:20:45;100715.19;;;20.04;12.53
54122;BME280;40029;58.708;50.190;2023-05-11T10:23:17;100626.34;;;19.72;12.11
54122;BME280;40029;58.708;50.190;2023-05-11T10:25:49;100609.25;;;19.64;11.86
54122;BME280;40029;58.708;50.190;2023-05-11T10:28:20;100665.59;;;20.07;11.97
54122;BME280;40029;58.708;50.190;2023-05-11T10:30:52;100676.53;;;20.15;11.86
54122;BME280;40029;58.708;50.190;2023-05-11T10:33:24;100701.16;;;20.30;12.05
54122;BME280;40029;58.708;50.190;2023-05-11T10:36:16;100687.06;;;20.44;11.54
54122;BME280;40029;58.708;50.190;2023-05-11T10:38:47;100651.75;;;20.31;11.02
54122;BME280;40029;58.708;50.190;2023-05-11T11:01:45;100671.91;;;21.00;10.52
54122;BME280;40029;58.708;50.190;2023-05-11T11:04:16;100675.88;;;21.07;10.26
54122;BME280;40029;58.708;50.190;2023-05-11T11:07:08;100623.75;;;20.81;10.41
54122;BME280;40029;58.708;50.190;2023-05-11T11:09:51;100676.28;;;21.14;9.93
54122;BME280;40029;58.708;50.190;2023-05-11T11:12:23;100664.16;;;21.37;9.75
54122;BME280;40029;58.708;50.190;2023-05-11T11:14:59;100616.63;;;21.21;10.07
54122;BME280;40029;58.708;50.190;2023-05-11T11:17:32;100655.09;;;21.14;10.64
54122;BME280;40029;58.708;50.190;2023-05-11T11:20:05;100660.31;;;21.28;10.70
54122;BME280;40029;58.708;50.190;2023-05-11T11:22:44;100655.44;;;21.60;9.93
54122;BME280;40029;58.708;50.190;2023-05-11T11:25:49;100657.00;;;21.88;9.97
54122;BME280;40029;58.708;50.190;2023-05-11T11:28:21;100649.66;;;22.17;9.66
54122;BME280;40029;58.708;50.190;2023-05-11T11:31:28;100634.56;;;22.66;8.73
54122;BME280;40029;58.708;50.190;2023-05-11T11:37:00;100602.38;;;23.39;8.57
54122;BME280;40029;58.708;50.190;2023-05-11T11:42:33;100637.66;;;24.42;6.96
54122;BME280;40029;58.708;50.190;2023-05-11T11:45:26;100650.91;;;24.86;5.96
54122;BME280;40029;58.708;50.190;2023-05-11T11:48:14;100606.03;;;24.91;5.36
54122;BME280;40029;58.708;50.190;2023-05-11T11:50:47;100649.34;;;25.46;5.88
54122;BME280;40029;58.708;50.190;2023-05-11T11:59:14;100595.81;;;26.86;5.58
54122;BME280;40029;58.708;50.190;2023-05-11T12:01:50;100579.47;;;26.99;4.05
54122;BME280;40029;58.708;50.190;2023-05-11T12:06:58;100585.66;;;27.84;3.61
54122;BME280;40029;58.708;50.190;2023-05-11T12:09:30;100577.13;;;27.71;4.01
54122;BME280;40029;58.708;50.190;2023-05-11T12:12:01;100620.69;;;28.18;3.19
54122;BME280;40029;58.708;50.190;2023-05-11T12:14:34;100547.72;;;27.88;3.05
54122;BME280;40029;58.708;50.190;2023-05-11T12:17:07;100591.31;;;28.08;2.53
54122;BME280;40029;58.708;50.190;2023-05-11T12:19:43;100626.94;;;27.54;2.85
54122;BME280;40029;58.708;50.190;2023-05-11T12:22:21;100590.75;;;27.50;1.98
54122;BME280;40029;58.708;50.190;2023-05-11T12:24:55;100613.19;;;28.04;1.59
54122;BME280;40029;58.708;50.190;2023-05-11T12:27:27;100618.53;;;28.49;1.71
54122;BME280;40029;58.708;50.190;2023-05-11T12:29:58;100613.97;;;28.32;2.57
54122;BME280;40029;58.708;50.190;2023-05-11T12:32:30;100603.84;;;28.08;2.29
54122;BME280;40029;58.708;50.190;2023-05-11T12:35:03;100592.91;;;27.74;1.95
54122;BME280;40029;58.708;50.190;2023-05-11T12:37:41;100601.22;;;27.98;1.67
54122;BME280;40029;58.708;50.190;2023-05-11T12:40:16;100573.38;;;27.91;1.98
54122;BME280;40029;58.708;50.190;2023-05-11T12:42:54;100599.31;;;28.36;1.12
54122;BME280;40029;58.708;50.190;2023-05-11T12:45:26;100600.84;;;28.56;1.01
54122;BME280;40029;58.708;50.190;2023-05-11T12:47:59;100524.63;;;28.05;1.18
54122;BME280;40029;58.708;50.190;2023-05-11T12:50:30;100602.16;;;28.25;1.59
54122;BME280;40029;58.708;50.190;2023-05-11T12:53:15;100561.69;;;28.46;0.87
54122;BME280;40029;58.708;50.190;2023-05-11T12:55:59;100567.56;;;28.13;1.01
54122;BME280;40029;58.708;50.190;2023-05-11T12:58:38;100595.47;;;28.38;1.29
54122;BME280;40029;58.708;50.190;2023-05-11T13:01:28;100595.69;;;27.72;1.80
54122;BME280;40029;58.708;50.190;2023-05-11T13:03:59;100592.00;;;28.28;1.35
54122;BME280;40029;58.708;50.190;2023-05-11T13:06:30;100590.03;;;28.92;1.25
54122;BME280;40029;58.708;50.190;2023-05-11T13:09:02;100557.94;;;29.00;0.70
54122;BME280;40029;58.708;50.190;2023-05-11T13:11:34;100556.81;;;28.85;1.15
54122;BME280;40029;58.708;50.190;2023-05-11T13:14:14;100580.22;;;29.27;0.87
54122;BME280;40029;58.708;50.190;2023-05-11T13:16:53;100549.53;;;28.77;1.07
54122;BME280;40029;58.708;50.190;2023-05-11T13:19:28;100552.16;;;28.95;0.94
54122;BME280;40029;58.708;50.190;2023-05-11T13:21:59;100507.09;;;27.93;1.38
54122;BME280;40029;58.708;50.190;2023-05-11T13:24:31;100561.22;;;28.14;1.01
54122;BME280;40029;58.708;50.190;2023-05-11T13:27:02;100582.66;;;28.68;0.77
54122;BME280;40029;58.708;50.190;2023-05-11T13:29:33;100549.88;;;28.56;0.72
54122;BME280;40029;58.708;50.190;2023-05-11T13:32:05;100581.53;;;28.97;0.96
54122;BME280;40029;58.708;50.190;2023-05-11T13:34:36;100561.06;;;28.70;1.15
54122;BME280;40029;58.708;50.190;2023-05-11T13:37:08;100585.09;;;28.79;1.59
54122;BME280;40029;58.708;50.190;2023-05-11T13:39:39;100574.22;;;28.63;1.77
54122;BME280;40029;58.708;50.190;2023-05-11T13:42:10;100555.56;;;28.53;1.38
54122;BME280;40029;58.708;50.190;2023-05-11T13:44:41;100534.50;;;28.23;1.40
54122;BME280;40029;58.708;50.190;2023-05-11T13:47:12;100542.44;;;28.50;1.35
54122;BME280;40029;58.708;50.190;2023-05-11T13:49:43;100539.69;;;28.24;1.22
54122;BME280;40029;58.708;50.190;2023-05-11T13:52:15;100574.94;;;28.47;1.32
54122;BME280;40029;58.708;50.190;2023-05-11T13:54:46;100545.13;;;28.50;1.70
54122;BME280;40029;58.708;50.190;2023-05-11T13:57:17;100579.97;;;29.12;1.06
54122;BME280;40029;58.708;50.190;2023-05-11T13:59:49;100574.41;;;29.31;0.79
54122;BME280;40029;58.708;50.190;2023-05-11T14:02:21;100573.13;;;29.18;0.84
54122;BME280;40029;58.708;50.190;2023-05-11T14:05:10;100557.66;;;29.11;0.95